Time;durP1;ratioP1;P1;durP2;ratioP2;P2;SDS_P1;SDS_P2;PMS_P1;PMS_P2;Temp;Humidity;BMP_temperature;BMP_pressure;BME280_temperature;BME280_humidity;BME280_pressure;Samples;Min_cycle;Max_cycle;Signal;HPM_P1;HPM_P2
2021/07/10 00:01:16;;;;;;;7.53;5.57;;;22.70;80.50;;;;;;5081037;28;20481;-88
2021/07/10 00:03:42;;;;;;;6.15;5.55;;;22.70;80.70;;;;;;5081554;28;20504;-87
2021/07/10 00:06:08;;;;;;;7.03;6.05;;;22.70;81.10;;;;;;5082347;28;20037;-87
2021/07/10 00:08:34;;;;;;;8.15;5.88;;;22.60;81.40;;;;;;5081014;28;20489;-88
2021/07/10 00:11:00;;;;;;;9.90;6.00;;;22.60;81.70;;;;;;5062253;28;20044;-88
2021/07/10 00:13:26;;;;;;;7.22;6.05;;;22.60;82.00;;;;;;5079952;28;20891;-88
2021/07/10 00:15:51;;;;;;;6.97;5.82;;;22.60;82.20;;;;;;5080607;28;20041;-88
2021/07/10 00:18:18;;;;;;;9.93;6.47;;;22.50;82.20;;;;;;5080792;28;20055;-88
2021/07/10 00:20:44;;;;;;;7.50;6.10;;;22.50;82.50;;;;;;5063746;28;20029;-87
2021/07/10 00:23:10;;;;;;;7.88;6.00;;;22.40;82.90;;;;;;5068796;28;20094;-86
2021/07/10 00:25:36;;;;;;;6.85;5.80;;;22.40;83.20;;;;;;5066309;28;20045;-88
2021/07/10 00:28:02;;;;;;;7.75;6.38;;;22.30;83.50;;;;;;5065503;28;20032;-88
2021/07/10 00:30:28;;;;;;;8.23;6.57;;;22.30;83.90;;;;;;5082299;28;20040;-88
2021/07/10 00:32:54;;;;;;;8.25;6.10;;;22.20;84.30;;;;;;5079689;28;20037;-87
2021/07/10 00:35:20;;;;;;;7.55;6.40;;;22.20;84.90;;;;;;5080520;28;20082;-88
2021/07/10 00:37:46;;;;;;;7.78;6.10;;;22.20;85.10;;;;;;5062403;28;20098;-88
2021/07/10 00:40:12;;;;;;;9.95;6.50;;;22.10;85.30;;;;;;5064704;28;20063;-88
2021/07/10 00:42:39;;;;;;;9.13;7.22;;;22.10;85.80;;;;;;5080041;28;20071;-88
2021/07/10 00:45:07;;;;;;;10.13;7.30;;;22.00;86.30;;;;;;5078023;28;20063;-88
2021/07/10 00:47:33;;;;;;;10.30;7.38;;;22.00;86.80;;;;;;5080790;28;20027;-88
2021/07/10 00:49:59;;;;;;;10.75;7.78;;;21.90;86.80;;;;;;5080400;28;20553;-88
2021/07/10 00:52:26;;;;;;;8.93;7.40;;;21.80;87.40;;;;;;5096538;28;20036;-88
2021/07/10 00:54:52;;;;;;;10.73;7.50;;;21.80;88.10;;;;;;5080197;28;20036;-88
2021/07/10 00:57:18;;;;;;;8.85;7.95;;;21.70;88.70;;;;;;5079268;28;20040;-87
2021/07/10 00:59:46;;;;;;;10.70;7.85;;;21.70;89.20;;;;;;5079889;28;20037;-88
2021/07/10 01:02:11;;;;;;;8.90;8.00;;;21.60;89.70;;;;;;5079975;28;20121;-88
2021/07/10 01:04:38;;;;;;;9.50;8.50;;;21.60;90.10;;;;;;5079168;28;20473;-88
2021/07/10 01:07:04;;;;;;;12.27;8.70;;;21.60;90.20;;;;;;5078939;28;20044;-88
2021/07/10 01:09:31;;;;;;;10.95;9.40;;;21.50;90.40;;;;;;5077638;28;20040;-88
2021/07/10 01:11:57;;;;;;;12.95;9.45;;;21.50;90.60;;;;;;5077417;28;20032;-88
2021/07/10 01:14:23;;;;;;;14.23;10.05;;;21.50;90.80;;;;;;5079439;28;20029;-88
2021/07/10 01:16:49;;;;;;;13.55;10.48;;;21.40;91.00;;;;;;5079414;28;20028;-87
2021/07/10 01:19:25;;;;;;;14.32;10.45;;;21.40;91.30;;;;;;5079363;28;20075;-88
2021/07/10 01:21:51;;;;;;;15.57;10.90;;;21.40;91.60;;;;;;5078770;28;20029;-88
2021/07/10 01:24:17;;;;;;;12.57;10.52;;;21.40;91.60;;;;;;5079833;28;20509;-88
2021/07/10 01:26:42;;;;;;;18.02;10.82;;;21.30;91.80;;;;;;5080278;28;20036;-88
2021/07/10 01:29:08;;;;;;;13.40;10.10;;;21.30;92.00;;;;;;5082125;28;20100;-87
2021/07/10 01:31:36;;;;;;;13.38;10.27;;;21.30;92.20;;;;;;5082316;28;20040;-88
2021/07/10 01:34:02;;;;;;;11.95;9.85;;;21.30;92.40;;;;;;5078610;28;20025;-88
2021/07/10 01:36:29;;;;;;;12.93;10.18;;;21.30;92.60;;;;;;5081207;28;20048;-88
2021/07/10 01:38:54;;;;;;;13.02;10.23;;;21.30;92.60;;;;;;5081486;28;20056;-88
2021/07/10 01:41:20;;;;;;;17.30;10.35;;;21.30;92.90;;;;;;5080616;28;20032;-88
2021/07/10 01:43:46;;;;;;;12.43;9.75;;;21.30;92.90;;;;;;5082438;28;20119;-88
2021/07/10 01:46:12;;;;;;;11.07;9.65;;;21.30;93.20;;;;;;5082468;28;20456;-88
2021/07/10 01:48:37;;;;;;;11.30;9.40;;;21.30;93.30;;;;;;5080467;28;20032;-88
2021/07/10 01:51:03;;;;;;;11.05;9.40;;;21.30;93.50;;;;;;5079358;28;20072;-88
2021/07/10 01:53:29;;;;;;;11.43;9.18;;;21.30;93.60;;;;;;5080926;28;20017;-88
2021/07/10 01:55:54;;;;;;;9.82;8.23;;;21.30;93.80;;;;;;5078570;28;20048;-88
2021/07/10 01:58:20;;;;;;;9.38;7.55;;;21.30;93.80;;;;;;5080128;28;20033;-88
2021/07/10 02:00:46;;;;;;;8.82;7.90;;;21.30;94.00;;;;;;5079035;28;20123;-88
2021/07/10 02:03:13;;;;;;;8.93;7.90;;;21.20;94.40;;;;;;5079672;28;20053;-88
2021/07/10 02:05:39;;;;;;;9.48;7.65;;;21.20;94.70;;;;;;5081666;28;20047;-88
2021/07/10 02:08:05;;;;;;;10.18;8.48;;;21.20;95.10;;;;;;5079723;28;20029;-88
2021/07/10 02:10:33;;;;;;;8.82;7.70;;;21.20;95.40;;;;;;5080198;28;20495;-88
2021/07/10 02:13:10;;;;;;;8.27;7.45;;;21.20;95.60;;;;;;5081087;28;20068;-88
2021/07/10 02:15:37;;;;;;;8.98;7.97;;;21.20;95.90;;;;;;5075623;28;20033;-87
2021/07/10 02:18:04;;;;;;;9.55;8.05;;;21.20;95.90;;;;;;5078550;28;20044;-87
2021/07/10 02:20:30;;;;;;;12.93;8.38;;;21.20;96.00;;;;;;5079541;28;20196;-88
2021/07/10 02:22:57;;;;;;;16.40;9.85;;;21.20;96.20;;;;;;5081068;28;20060;-88
2021/07/10 02:25:23;;;;;;;13.75;8.93;;;21.20;96.40;;;;;;5082654;28;20037;-88
2021/07/10 02:27:50;;;;;;;13.48;8.55;;;21.30;96.60;;;;;;5082964;28;20056;-88
2021/07/10 02:30:19;;;;;;;10.02;8.00;;;21.30;96.70;;;;;;5081246;28;20040;-87
2021/07/10 02:32:46;;;;;;;8.88;7.97;;;21.40;96.70;;;;;;5080907;28;20039;-88
2021/07/10 02:35:13;;;;;;;8.23;7.35;;;21.40;96.70;;;;;;5082297;28;20036;-88
2021/07/10 02:37:40;;;;;;;11.85;7.88;;;21.50;96.60;;;;;;5082244;28;20032;-88
2021/07/10 02:40:08;;;;;;;8.70;7.50;;;21.60;96.40;;;;;;5081083;28;20054;-88
2021/07/10 02:42:35;;;;;;;8.50;7.50;;;21.60;96.40;;;;;;5081971;28;20036;-88
2021/07/10 02:45:02;;;;;;;10.15;7.20;;;21.60;96.60;;;;;;5080662;28;20040;-88
2021/07/10 02:47:28;;;;;;;12.18;7.72;;;21.60;96.40;;;;;;5080018;28;20043;-88
2021/07/10 02:49:53;;;;;;;8.98;7.30;;;21.70;96.40;;;;;;5082000;28;20367;-88
2021/07/10 02:52:19;;;;;;;8.25;7.35;;;21.70;96.50;;;;;;5081996;28;20090;-88
2021/07/10 02:54:45;;;;;;;9.95;7.95;;;21.70;96.60;;;;;;5083113;28;20047;-88
2021/07/10 02:57:10;;;;;;;8.07;7.07;;;21.70;96.60;;;;;;5081838;28;20040;-88
2021/07/10 02:59:36;;;;;;;10.15;7.32;;;21.70;96.70;;;;;;5080309;28;20052;-87
2021/07/10 03:02:03;;;;;;;9.57;7.25;;;21.80;96.80;;;;;;5079350;28;20552;-87
2021/07/10 03:04:29;;;;;;;7.95;7.15;;;21.80;96.70;;;;;;5080436;28;20052;-88
2021/07/10 03:06:55;;;;;;;8.45;7.13;;;21.90;96.60;;;;;;5080111;28;20028;-89
2021/07/10 03:09:20;;;;;;;7.97;6.85;;;22.00;96.50;;;;;;5079452;28;20416;-89
2021/07/10 03:11:48;;;;;;;10.63;8.25;;;22.00;96.30;;;;;;5076882;28;20072;-89
2021/07/10 03:14:15;;;;;;;12.35;9.57;;;22.10;96.10;;;;;;5078999;28;20029;-87
2021/07/10 03:16:41;;;;;;;11.30;9.18;;;22.10;95.90;;;;;;5078960;28;20366;-88
2021/07/10 03:19:07;;;;;;;13.75;9.20;;;22.10;95.70;;;;;;5078979;28;20516;-87
2021/07/10 03:21:33;;;;;;;10.40;8.48;;;22.20;95.70;;;;;;5080458;28;20040;-88
2021/07/10 03:23:59;;;;;;;9.25;7.85;;;22.30;95.50;;;;;;5079273;28;20115;-88
2021/07/10 03:26:24;;;;;;;13.23;8.75;;;22.40;95.40;;;;;;5081570;28;20033;-88
2021/07/10 03:28:50;;;;;;;10.38;8.48;;;22.40;95.20;;;;;;5080243;28;20032;-88
2021/07/10 03:31:16;;;;;;;9.15;7.88;;;22.50;95.10;;;;;;5087232;28;20071;-87
2021/07/10 03:33:44;;;;;;;8.75;7.85;;;22.60;95.00;;;;;;5087511;28;20029;-89
2021/07/10 03:36:11;;;;;;;9.70;7.80;;;22.70;94.80;;;;;;5077691;28;20048;-90
2021/07/10 03:38:36;;;;;;;8.75;7.38;;;22.80;94.90;;;;;;5078405;28;20054;-90
2021/07/10 03:41:02;;;;;;;9.32;7.50;;;22.90;94.40;;;;;;5076360;28;20040;-88
2021/07/10 03:43:29;;;;;;;9.45;7.85;;;23.00;94.30;;;;;;5084427;28;20137;-88
2021/07/10 03:45:54;;;;;;;8.13;7.30;;;23.10;94.10;;;;;;5074980;28;20051;-89
2021/07/10 03:48:20;;;;;;;10.93;7.72;;;23.20;94.00;;;;;;5076820;28;20029;-88
2021/07/10 03:50:46;;;;;;;8.65;6.97;;;23.30;93.90;;;;;;5078421;28;20544;-89
2021/07/10 03:53:12;;;;;;;8.02;7.13;;;23.40;93.70;;;;;;5078249;28;20059;-89
2021/07/10 03:55:39;;;;;;;8.70;6.72;;;23.60;93.30;;;;;;5079519;28;20044;-90
2021/07/10 03:58:05;;;;;;;8.18;6.45;;;23.70;92.70;;;;;;5081042;28;20048;-89
2021/07/10 04:00:31;;;;;;;6.80;6.10;;;23.90;91.90;;;;;;5085093;28;20079;-89
2021/07/10 04:02:56;;;;;;;7.38;6.60;;;24.00;91.30;;;;;;5082644;28;20032;-89
2021/07/10 04:05:22;;;;;;;6.32;5.68;;;24.10;90.60;;;;;;5087187;28;20036;-89
2021/07/10 04:07:49;;;;;;;7.80;5.43;;;24.30;89.70;;;;;;5086565;28;20119;-89
2021/07/10 04:10:15;;;;;;;6.32;5.32;;;24.40;88.30;;;;;;5086694;28;20047;-89
2021/07/10 04:12:42;;;;;;;9.00;5.43;;;24.60;86.70;;;;;;5084228;28;20127;-89
2021/07/10 04:15:10;;;;;;;8.45;5.63;;;24.80;85.50;;;;;;5083033;28;20045;-89
2021/07/10 04:17:36;;;;;;;7.95;5.30;;;24.90;84.20;;;;;;5081902;28;20032;-90
2021/07/10 04:20:03;;;;;;;7.20;5.28;;;25.00;83.00;;;;;;5081221;28;20075;-90
2021/07/10 04:22:29;;;;;;;9.07;5.30;;;25.20;81.90;;;;;;5079973;28;20029;-89
2021/07/10 04:24:55;;;;;;;7.35;5.15;;;25.30;80.80;;;;;;5078286;28;20048;-90
2021/07/10 04:27:21;;;;;;;7.72;5.28;;;25.30;80.00;;;;;;5086360;28;20035;-89
2021/07/10 04:29:48;;;;;;;6.20;5.53;;;25.30;79.80;;;;;;5085271;28;20040;-89
2021/07/10 04:32:14;;;;;;;7.07;5.30;;;25.30;79.70;;;;;;5085128;28;20028;-89
2021/07/10 04:34:40;;;;;;;6.63;5.40;;;25.30;79.60;;;;;;5085945;28;20037;-89
2021/07/10 04:37:06;;;;;;;7.63;5.43;;;25.40;79.40;;;;;;5083550;28;20043;-89
2021/07/10 04:39:32;;;;;;;7.82;5.82;;;25.50;78.80;;;;;;5081784;28;20071;-89
2021/07/10 04:41:59;;;;;;;7.85;5.80;;;25.70;77.90;;;;;;5080302;28;20033;-89
2021/07/10 04:44:24;;;;;;;7.78;5.70;;;25.80;77.60;;;;;;5083642;28;20038;-90
2021/07/10 04:46:50;;;;;;;6.45;5.55;;;25.90;77.20;;;;;;5084252;28;20128;-89
2021/07/10 04:49:16;;;;;;;8.20;6.00;;;26.00;76.60;;;;;;5084981;28;20029;-89
2021/07/10 04:51:42;;;;;;;6.10;5.50;;;26.10;76.30;;;;;;5083230;28;20405;-90
2021/07/10 04:54:07;;;;;;;7.85;5.43;;;26.20;75.80;;;;;;5081515;28;20400;-90
2021/07/10 04:56:33;;;;;;;8.35;5.65;;;26.40;75.30;;;;;;5083441;28;20063;-89
2021/07/10 04:58:59;;;;;;;6.72;5.10;;;26.60;74.80;;;;;;5078979;28;20139;-91
2021/07/10 05:01:25;;;;;;;10.02;5.32;;;26.70;74.30;;;;;;5083487;28;20080;-90
2021/07/10 05:03:50;;;;;;;5.90;4.82;;;26.90;74.00;;;;;;5082695;28;20113;-89
2021/07/10 05:06:16;;;;;;;9.15;5.82;;;27.10;73.30;;;;;;5080689;28;20040;-89
2021/07/10 05:08:42;;;;;;;5.63;5.13;;;27.30;72.40;;;;;;5081012;28;20028;-88
2021/07/10 05:11:07;;;;;;;6.32;5.40;;;27.50;72.10;;;;;;5091010;28;20608;-88
2021/07/10 05:13:33;;;;;;;6.13;5.30;;;27.80;71.40;;;;;;5092170;28;20363;-88
2021/07/10 05:15:59;;;;;;;6.88;5.00;;;28.10;70.90;;;;;;5081333;28;20041;-89
2021/07/10 05:18:25;;;;;;;7.10;4.72;;;28.40;70.70;;;;;;5081033;28;20050;-88
2021/07/10 05:20:51;;;;;;;4.85;4.45;;;28.80;70.00;;;;;;5079093;28;20389;-90
2021/07/10 05:23:17;;;;;;;7.20;4.55;;;29.30;69.40;;;;;;5081212;28;20119;-89
2021/07/10 05:25:42;;;;;;;6.47;4.68;;;29.70;68.60;;;;;;5080059;28;20044;-88
2021/07/10 05:28:08;;;;;;;8.52;4.70;;;30.20;66.70;;;;;;5079171;28;20041;-89
2021/07/10 05:30:34;;;;;;;5.00;4.50;;;30.60;65.30;;;;;;5082522;28;20127;-89
2021/07/10 05:32:59;;;;;;;4.95;4.32;;;31.00;64.50;;;;;;5079643;28;20067;-91
2021/07/10 05:35:27;;;;;;;4.93;3.95;;;31.50;63.40;;;;;;5078994;28;20078;-89
2021/07/10 05:37:53;;;;;;;5.10;4.22;;;31.90;62.00;;;;;;5083218;28;20041;-88
2021/07/10 05:40:20;;;;;;;7.45;3.88;;;32.30;61.30;;;;;;5079214;28;20059;-90
2021/07/10 05:42:49;;;;;;;7.30;3.88;;;32.70;60.10;;;;;;5080963;28;20036;-89
2021/07/10 05:45:18;;;;;;;6.70;4.05;;;33.00;59.20;;;;;;5079510;28;20055;-91
2021/07/10 05:47:44;;;;;;;4.82;4.32;;;33.20;58.00;;;;;;5078953;28;20033;-90
2021/07/10 05:50:11;;;;;;;4.65;4.00;;;33.40;56.90;;;;;;5086123;28;20087;-89
2021/07/10 05:52:37;;;;;;;4.40;4.00;;;33.50;54.80;;;;;;5085948;28;20088;-90
2021/07/10 05:55:04;;;;;;;7.35;4.15;;;33.50;54.60;;;;;;5079938;28;20393;-89
2021/07/10 05:57:31;;;;;;;4.22;3.70;;;33.70;54.00;;;;;;5080225;28;20533;-91
2021/07/10 05:59:57;;;;;;;3.97;3.40;;;33.80;53.10;;;;;;5081206;28;20071;-90
2021/07/10 06:02:23;;;;;;;5.15;3.63;;;34.00;53.20;;;;;;5082805;28;20032;-89
2021/07/10 06:04:49;;;;;;;4.97;3.40;;;34.20;52.80;;;;;;5083771;28;20036;-88
2021/07/10 06:07:15;;;;;;;5.43;3.30;;;34.60;52.50;;;;;;5083368;28;20042;-89
2021/07/10 06:09:40;;;;;;;4.35;3.20;;;35.10;51.70;;;;;;5083026;28;20044;-89
2021/07/10 06:12:07;;;;;;;3.75;3.38;;;35.50;50.80;;;;;;5079976;28;20035;-89
2021/07/10 06:14:33;;;;;;;4.00;3.40;;;35.80;49.70;;;;;;5080483;28;20040;-88
2021/07/10 06:16:59;;;;;;;6.95;3.60;;;36.00;49.30;;;;;;5083605;28;20470;-90
2021/07/10 06:19:25;;;;;;;3.75;3.33;;;36.30;49.40;;;;;;5090175;28;20051;-90
2021/07/10 06:21:51;;;;;;;4.22;3.10;;;36.50;49.80;;;;;;5088368;28;20033;-91
2021/07/10 06:24:17;;;;;;;8.05;3.15;;;36.60;48.50;;;;;;5080064;28;20501;-90
2021/07/10 06:26:42;;;;;;;4.38;3.17;;;36.80;48.40;;;;;;5082614;28;20039;-90
2021/07/10 06:29:08;;;;;;;5.65;3.22;;;37.10;47.90;;;;;;5081279;28;20043;-90
2021/07/10 06:31:34;;;;;;;3.50;3.20;;;37.50;47.60;;;;;;5080332;28;20028;-90
2021/07/10 06:34:00;;;;;;;3.33;3.00;;;37.80;47.00;;;;;;5080384;28;20058;-90
2021/07/10 06:36:27;;;;;;;5.85;3.15;;;37.90;46.70;;;;;;5084090;28;20373;-92
2021/07/10 06:38:53;;;;;;;3.88;3.42;;;38.10;46.30;;;;;;5081440;28;20040;-89
2021/07/10 06:41:19;;;;;;;3.40;3.08;;;38.10;45.70;;;;;;5077932;28;20036;-90
2021/07/10 06:43:45;;;;;;;5.50;3.40;;;38.00;45.50;;;;;;5079378;28;20094;-92
2021/07/10 06:46:11;;;;;;;3.95;3.53;;;38.00;45.80;;;;;;5080465;28;20044;-90
2021/07/10 06:48:37;;;;;;;3.60;3.17;;;38.00;45.10;;;;;;5080214;28;20120;-90
2021/07/10 06:51:04;;;;;;;4.05;3.40;;;38.10;45.20;;;;;;5079406;28;20123;-91
2021/07/10 06:53:31;;;;;;;6.53;3.10;;;38.40;44.30;;;;;;5079601;28;20512;-91
2021/07/10 06:55:57;;;;;;;3.55;3.25;;;38.40;43.80;;;;;;5080494;28;20044;-90
2021/07/10 06:58:23;;;;;;;3.47;2.80;;;38.40;43.80;;;;;;5079746;28;20043;-92
2021/07/10 07:00:49;;;;;;;8.80;3.25;;;38.50;43.80;;;;;;5080796;28;20037;-92
2021/07/10 07:03:15;;;;;;;4.10;3.08;;;38.50;43.40;;;;;;5081624;28;20037;-90
2021/07/10 07:05:41;;;;;;;4.60;3.10;;;38.60;43.30;;;;;;5082325;28;20044;-91
2021/07/10 07:08:07;;;;;;;3.88;3.35;;;38.90;43.30;;;;;;5077747;28;20500;-91
2021/07/10 07:10:33;;;;;;;4.70;3.40;;;39.10;42.80;;;;;;5082272;28;20052;-91
2021/07/10 07:12:59;;;;;;;3.90;3.50;;;39.40;42.00;;;;;;5080292;28;20032;-93
2021/07/10 07:15:25;;;;;;;3.55;3.25;;;39.50;40.60;;;;;;5079663;28;20048;-91
2021/07/10 07:17:51;;;;;;;10.05;9.00;;;39.40;40.60;;;;;;5078226;28;20040;-92
2021/07/10 07:20:17;;;;;;;4.10;3.80;;;39.20;41.30;;;;;;5079469;28;20101;-91
2021/07/10 07:22:47;;;;;;;3.53;3.22;;;39.50;41.60;;;;;;5080444;28;20035;-93
2021/07/10 07:25:17;;;;;;;3.80;3.42;;;40.00;41.50;;;;;;5079709;28;20044;-92
2021/07/10 07:27:43;;;;;;;3.65;3.17;;;40.10;41.30;;;;;;5087270;28;20029;-92
2021/07/10 07:30:11;;;;;;;3.58;3.15;;;40.10;40.90;;;;;;5089820;28;20036;-90
2021/07/10 07:32:37;;;;;;;6.30;2.90;;;40.30;40.40;;;;;;5081946;28;20621;-91
2021/07/10 07:35:04;;;;;;;3.50;3.05;;;40.60;40.30;;;;;;5080665;28;20041;-90
2021/07/10 07:37:30;;;;;;;3.80;2.97;;;40.90;39.70;;;;;;5076851;28;20046;-91
2021/07/10 07:39:56;;;;;;;3.40;3.10;;;41.10;39.70;;;;;;5080092;28;20127;-92
2021/07/10 07:42:22;;;;;;;4.28;3.30;;;41.40;39.20;;;;;;5079282;28;20043;-91
2021/07/10 07:44:48;;;;;;;3.40;3.10;;;41.40;39.00;;;;;;5078445;28;20485;-90
2021/07/10 07:47:16;;;;;;;3.17;2.97;;;41.50;39.10;;;;;;5078869;28;20024;-91
2021/07/10 07:49:43;;;;;;;3.70;3.03;;;41.40;38.50;;;;;;5079565;28;20125;-90
2021/07/10 07:52:09;;;;;;;4.45;2.88;;;41.20;38.60;;;;;;5081171;28;20013;-91
2021/07/10 07:54:36;;;;;;;3.22;3.03;;;41.10;38.50;;;;;;5087844;28;20045;-91
2021/07/10 07:57:11;;;;;;;4.25;3.50;;;41.00;37.90;;;;;;5079945;28;20481;-91
2021/07/10 07:59:51;;;;;;;3.60;3.30;;;40.90;37.50;;;;;;5081692;28;20041;-90
2021/07/10 08:02:23;;;;;;;4.43;3.60;;;40.50;37.50;;;;;;5087200;28;20045;-89
2021/07/10 08:04:50;;;;;;;3.58;3.28;;;40.60;37.50;;;;;;5083422;28;20033;-91
2021/07/10 08:07:17;;;;;;;4.70;3.20;;;40.80;38.00;;;;;;5077751;28;20094;-92
2021/07/10 08:09:43;;;;;;;3.47;3.15;;;41.10;38.10;;;;;;5078011;28;20062;-92
2021/07/10 08:12:10;;;;;;;3.58;3.28;;;41.50;38.10;;;;;;5078495;28;20032;-93
2021/07/10 08:14:36;;;;;;;3.30;3.00;;;41.80;37.60;;;;;;5079904;28;20039;-90
2021/07/10 08:17:03;;;;;;;3.50;3.20;;;42.20;37.60;;;;;;5077343;28;20439;-90
2021/07/10 08:19:29;;;;;;;3.70;3.40;;;42.40;37.10;;;;;;5077524;28;20528;-90
2021/07/10 08:21:55;;;;;;;3.60;3.30;;;42.40;36.60;;;;;;5076996;28;20470;-93
2021/07/10 08:24:21;;;;;;;3.42;3.10;;;42.10;36.60;;;;;;5079159;28;20029;-91
2021/07/10 08:26:47;;;;;;;4.18;3.00;;;42.10;36.60;;;;;;5082210;28;20039;-90
2021/07/10 08:34:16;;;;;;;3.60;3.30;;;42.30;35.50;;;;;;5077776;28;20102;-90
2021/07/10 08:36:42;;;;;;;5.05;3.03;;;42.10;35.50;;;;;;5061341;28;20041;-92
2021/07/10 08:39:08;;;;;;;3.45;3.15;;;42.20;35.50;;;;;;5061342;28;20107;-90
2021/07/10 08:41:35;;;;;;;4.15;3.70;;;42.30;35.40;;;;;;5079473;28;20481;-93
2021/07/10 08:44:01;;;;;;;5.10;3.25;;;42.00;35.20;;;;;;5062266;28;20150;-90
2021/07/10 08:46:27;;;;;;;3.13;2.88;;;41.90;35.60;;;;;;5077685;28;20052;-91
2021/07/10 08:48:53;;;;;;;3.42;3.13;;;41.80;35.60;;;;;;5059347;28;20029;-92
2021/07/10 08:51:19;;;;;;;5.20;3.40;;;42.00;35.70;;;;;;5077309;28;20033;-91
2021/07/10 08:53:44;;;;;;;5.93;3.72;;;42.10;35.40;;;;;;5061034;28;20032;-90
2021/07/10 08:56:10;;;;;;;4.93;3.30;;;42.20;35.00;;;;;;5084459;28;20055;-89
2021/07/10 08:58:37;;;;;;;5.75;3.60;;;42.30;35.30;;;;;;5089549;28;20477;-90
2021/07/10 09:01:05;;;;;;;4.68;3.55;;;42.60;34.90;;;;;;5063433;28;20043;-90
2021/07/10 09:03:31;;;;;;;3.97;3.45;;;42.60;34.60;;;;;;5060725;28;20045;-91
2021/07/10 09:05:58;;;;;;;4.10;3.50;;;42.40;34.60;;;;;;5064784;28;20037;-92
2021/07/10 09:08:29;;;;;;;3.83;2.83;;;42.40;34.30;;;;;;5064953;28;20032;-92
2021/07/10 09:11:17;;;;;;;5.63;3.65;;;42.10;34.60;;;;;;5060520;28;20066;-91
2021/07/10 09:13:53;;;;;;;4.35;3.30;;;42.10;34.80;;;;;;5077174;28;20049;-89
2021/07/10 09:16:36;;;;;;;3.67;3.38;;;42.10;34.40;;;;;;5060843;28;20032;-91
2021/07/10 09:19:08;;;;;;;3.80;3.40;;;42.40;34.50;;;;;;5060445;28;20041;-90
2021/07/10 09:21:50;;;;;;;5.27;3.43;;;42.30;34.60;;;;;;5060152;28;20036;-92
2021/07/10 09:24:25;;;;;;;3.30;3.08;;;42.30;34.80;;;;;;5060466;28;20039;-91
2021/07/10 09:27:00;;;;;;;3.45;3.15;;;42.60;35.20;;;;;;5058393;28;20045;-90
2021/07/10 09:29:28;;;;;;;3.42;3.13;;;43.10;35.40;;;;;;5060297;28;20077;-91
2021/07/10 09:32:03;;;;;;;4.63;3.30;;;43.40;35.10;;;;;;5078006;28;20056;-92
2021/07/10 09:34:45;;;;;;;3.72;3.30;;;43.80;35.30;;;;;;5063954;28;20047;-90
2021/07/10 09:37:13;;;;;;;3.15;2.90;;;44.20;35.00;;;;;;5064519;28;20060;-92
2021/07/10 09:40:05;;;;;;;5.00;3.30;;;44.50;35.00;;;;;;5065442;28;20052;-90
2021/07/10 09:42:34;;;;;;;5.03;3.57;;;44.80;34.70;;;;;;5066326;28;20047;-89
2021/07/10 09:45:00;;;;;;;3.42;3.13;;;44.50;34.80;;;;;;5063796;28;20494;-91
2021/07/10 09:47:28;;;;;;;3.15;2.80;;;44.70;35.30;;;;;;5064124;28;20116;-92
2021/07/10 09:49:55;;;;;;;3.30;3.00;;;45.20;35.30;;;;;;5064694;28;20075;-91
2021/07/10 09:52:23;;;;;;;3.40;3.10;;;45.80;35.10;;;;;;5064126;28;20166;-91
2021/07/10 09:54:54;;;;;;;3.55;2.97;;;46.20;34.60;;;;;;5064085;28;20047;-91
2021/07/10 09:57:25;;;;;;;5.07;3.08;;;46.40;34.60;;;;;;5061256;28;20086;-91
2021/07/10 09:59:57;;;;;;;3.53;3.22;;;46.90;34.30;;;;;;5061810;28;20072;-92
2021/07/10 10:02:29;;;;;;;3.53;3.22;;;47.20;33.90;;;;;;5065352;28;20059;-92
2021/07/10 10:05:09;;;;;;;3.83;3.50;;;47.30;33.20;;;;;;5069934;28;20040;-91
2021/07/10 10:07:44;;;;;;;4.00;3.70;;;46.70;32.40;;;;;;5065834;28;20032;-90
2021/07/10 10:10:26;;;;;;;4.03;3.70;;;46.30;32.90;;;;;;5085416;28;20051;-90
2021/07/10 10:13:04;;;;;;;4.32;3.20;;;45.70;32.90;;;;;;5063761;28;20121;-91
2021/07/10 10:15:43;;;;;;;5.45;3.72;;;45.60;32.90;;;;;;5064084;28;20036;-93
2021/07/10 10:18:10;;;;;;;3.42;3.22;;;45.20;32.80;;;;;;5064150;28;20106;-91
2021/07/10 10:20:37;;;;;;;3.80;3.28;;;45.10;33.40;;;;;;5064451;28;20096;-93
2021/07/10 10:23:05;;;;;;;6.05;3.65;;;45.50;33.40;;;;;;5064229;28;20123;-93
2021/07/10 10:25:32;;;;;;;3.88;3.58;;;45.90;33.30;;;;;;5068181;28;20034;-91
2021/07/10 10:27:58;;;;;;;4.45;3.53;;;46.10;33.30;;;;;;5064612;28;20131;-92
2021/07/10 10:30:25;;;;;;;3.90;3.50;;;46.40;33.30;;;;;;5047516;28;20493;-92
2021/07/10 10:32:51;;;;;;;4.35;3.70;;;46.40;32.90;;;;;;5068618;28;20055;-91
2021/07/10 10:35:19;;;;;;;5.90;3.90;;;46.50;32.70;;;;;;5080317;28;20067;-90
2021/07/10 10:37:45;;;;;;;4.78;4.30;;;46.10;32.40;;;;;;5080338;28;20071;-91
2021/07/10 10:40:23;;;;;;;5.07;3.95;;;45.70;31.90;;;;;;5079978;28;20090;-90
2021/07/10 10:42:55;;;;;;;5.38;4.10;;;45.40;32.60;;;;;;5080937;28;20032;-92
2021/07/10 10:45:33;;;;;;;4.60;4.20;;;45.10;32.40;;;;;;5079452;28;20119;-91
2021/07/10 10:48:00;;;;;;;5.35;4.35;;;44.80;32.00;;;;;;5081367;28;20041;-92
2021/07/10 10:50:34;;;;;;;5.40;4.10;;;45.00;31.90;;;;;;5084087;28;20029;-91
2021/07/10 10:53:01;;;;;;;6.55;4.28;;;44.80;32.40;;;;;;5086332;28;20551;-91
2021/07/10 10:55:32;;;;;;;4.20;3.85;;;44.60;32.70;;;;;;5080225;28;20469;-93
2021/07/10 10:58:17;;;;;;;4.25;3.95;;;45.10;32.80;;;;;;5081502;28;20040;-91
2021/07/10 11:01:01;;;;;;;6.88;3.95;;;45.40;32.50;;;;;;5079190;28;20032;-91
2021/07/10 11:03:40;;;;;;;3.70;3.40;;;45.90;32.60;;;;;;5079691;28;20043;-93
2021/07/10 11:06:26;;;;;;;6.82;4.10;;;46.60;31.70;;;;;;5081046;28;20032;-90
2021/07/10 11:08:52;;;;;;;4.28;3.55;;;47.20;31.70;;;;;;5095722;28;20074;-92
2021/07/10 11:11:20;;;;;;;4.50;4.10;;;48.20;31.40;;;;;;5076826;28;20090;-91
2021/07/10 11:14:10;;;;;;;4.85;3.72;;;48.50;30.90;;;;;;5078236;28;20037;-92
2021/07/10 11:16:56;;;;;;;4.35;3.95;;;48.60;30.30;;;;;;5081114;28;20041;-91
2021/07/10 11:19:42;;;;;;;4.03;3.72;;;48.60;30.30;;;;;;5079013;28;20052;-91
2021/07/10 11:22:08;;;;;;;6.65;4.35;;;48.50;29.80;;;;;;5079048;28;20066;-93
2021/07/10 11:24:45;;;;;;;4.32;4.03;;;48.70;31.00;;;;;;5077697;28;20041;-92
2021/07/10 11:27:11;;;;;;;4.25;3.70;;;49.10;29.60;;;;;;5092665;28;20066;-91
2021/07/10 11:29:39;;;;;;;4.60;3.60;;;49.30;30.10;;;;;;5089919;28;20029;-92
2021/07/10 11:32:11;;;;;;;3.90;3.60;;;49.60;30.60;;;;;;5081647;28;20044;-91
2021/07/10 11:34:40;;;;;;;;;;;49.80;29.60;;;;;;5063830;28;20089;-92
2021/07/10 11:37:24;;;;;;;3.72;3.33;;;49.90;29.90;;;;;;5065248;28;19924;-89
2021/07/10 11:39:57;;;;;;;3.70;3.40;;;50.00;29.80;;;;;;5072912;28;20079;-91
2021/07/10 11:42:25;;;;;;;4.85;3.50;;;49.80;29.50;;;;;;5063092;28;20036;-91
2021/07/10 11:44:54;;;;;;;3.38;3.17;;;49.20;29.50;;;;;;5065099;28;20032;-89
2021/07/10 11:47:30;;;;;;;3.28;3.08;;;49.00;29.80;;;;;;5072784;28;20048;-89
2021/07/10 11:49:58;;;;;;;3.80;3.20;;;49.30;29.50;;;;;;5068871;28;20036;-92
2021/07/10 11:52:24;;;;;;;3.38;3.08;;;49.40;29.40;;;;;;5083626;28;20039;-90
2021/07/10 11:54:57;;;;;;;4.85;4.03;;;49.70;29.40;;;;;;5079400;28;20456;-92
2021/07/10 11:57:25;;;;;;;3.80;3.50;;;50.00;29.40;;;;;;5065469;28;20071;-90
2021/07/10 11:59:52;;;;;;;4.82;3.70;;;50.30;29.10;;;;;;5064545;28;20084;-91
2021/07/10 12:02:20;;;;;;;4.20;3.80;;;50.10;29.20;;;;;;5061166;28;20033;-89
2021/07/10 12:05:07;;;;;;;4.95;3.17;;;49.90;29.20;;;;;;5059408;28;20397;-91
2021/07/10 12:07:35;;;;;;;3.88;3.58;;;49.70;29.40;;;;;;5057386;28;20021;-91
2021/07/10 12:10:00;;;;;;;3.65;3.35;;;49.90;29.50;;;;;;5061332;28;20036;-92
2021/07/10 12:12:26;;;;;;;3.53;3.33;;;50.20;29.30;;;;;;5077548;28;20025;-91
2021/07/10 12:14:57;;;;;;;3.15;2.95;;;50.40;29.20;;;;;;5075019;28;20041;-92
2021/07/10 12:17:25;;;;;;;5.18;3.40;;;50.80;29.10;;;;;;5060450;28;20056;-91
2021/07/10 12:19:51;;;;;;;3.67;3.33;;;50.90;29.00;;;;;;5060425;28;20544;-90
2021/07/10 12:22:18;;;;;;;3.30;3.10;;;50.80;28.60;;;;;;5063030;28;20024;-90
2021/07/10 12:24:45;;;;;;;3.72;3.42;;;50.80;28.50;;;;;;5074715;28;20068;-91
2021/07/10 12:27:16;;;;;;;3.30;3.10;;;50.80;28.30;;;;;;5068076;28;20032;-90
2021/07/10 12:29:55;;;;;;;3.25;3.05;;;50.90;28.20;;;;;;5061866;28;20134;-92
2021/07/10 12:32:21;;;;;;;3.45;3.15;;;50.80;28.10;;;;;;5064916;28;20047;-91
2021/07/10 12:34:53;;;;;;;3.53;3.22;;;50.80;28.20;;;;;;5077020;28;20127;-91
2021/07/10 12:37:25;;;;;;;;;;;50.50;28.30;;;;;;5077257;28;20029;-91
2021/07/10 12:39:51;;;;;;;3.30;3.00;;;50.30;28.50;;;;;;5076121;28;19924;-90
2021/07/10 12:42:18;;;;;;;3.35;3.03;;;50.50;28.80;;;;;;5082842;28;20039;-91
2021/07/10 12:44:46;;;;;;;3.28;2.97;;;50.70;28.80;;;;;;5075402;28;20037;-92
2021/07/10 12:47:15;;;;;;;3.15;2.85;;;50.80;28.70;;;;;;5074636;28;20032;-91
2021/07/10 12:49:43;;;;;;;3.83;3.45;;;51.00;28.80;;;;;;5076080;28;20051;-90
2021/07/10 12:52:25;;;;;;;4.03;3.22;;;51.10;28.70;;;;;;5078230;28;20028;-90
2021/07/10 12:55:09;;;;;;;3.10;2.90;;;50.70;28.40;;;;;;5076924;28;20044;-92